Kamen'-na-Obi, Russia
Current Conditions -  °F | °C
As of 12:00 PM on Thursday 23 Oct 2014 (Local Time) from UNBB Reporting Station
Clear Clear  
Wind Chill:   Ceiling: Unl
Heat Index:   Visibility: 6mi
Dew Point:   Wind: 11mph
Humidity: 81%   Direction: 170°S
Pressure: 29.91"   Gusts: NA
Location:  53.82°N, 81.27°E
Report Text: UNBB 230500Z 17005MPS CAVOK 04/01 Q1013 NOSIG RMK QFE737/098324190058
Loading
Personal Weather Stations






























Interactive Weather Map
Tropical Storm Tracking
New forecast layout! Learn more

10-Day Weather Forecast

Advertisements
Track Severe Weather on mobile